sensor_id;sensor_type;location;lat;lon;timestamp;temperature;humidity
67557;DHT22;54387;53.526;49.300;2023-11-21T00:02:25;2.00;67.30
67557;DHT22;54387;53.526;49.300;2023-11-21T00:04:53;2.00;67.30
67557;DHT22;54387;53.526;49.300;2023-11-21T00:07:19;1.90;67.30
67557;DHT22;54387;53.526;49.300;2023-11-21T00:09:47;2.00;67.30
67557;DHT22;54387;53.526;49.300;2023-11-21T00:12:13;2.00;67.40
67557;DHT22;54387;53.526;49.300;2023-11-21T00:14:40;2.00;67.40
67557;DHT22;54387;53.526;49.300;2023-11-21T00:17:07;2.00;67.40
67557;DHT22;54387;53.526;49.300;2023-11-21T00:19:33;2.00;67.50
67557;DHT22;54387;53.526;49.300;2023-11-21T00:22:00;2.00;67.60
67557;DHT22;54387;53.526;49.300;2023-11-21T00:24:27;2.00;67.70
67557;DHT22;54387;53.526;49.300;2023-11-21T00:26:53;2.00;67.60
67557;DHT22;54387;53.526;49.300;2023-11-21T00:29:19;2.00;67.60
67557;DHT22;54387;53.526;49.300;2023-11-21T00:31:45;2.00;67.70
67557;DHT22;54387;53.526;49.300;2023-11-21T00:34:12;2.00;67.60
67557;DHT22;54387;53.526;49.300;2023-11-21T00:36:38;2.00;67.70
67557;DHT22;54387;53.526;49.300;2023-11-21T00:39:05;2.00;67.60
67557;DHT22;54387;53.526;49.300;2023-11-21T00:41:32;2.10;67.70
67557;DHT22;54387;53.526;49.300;2023-11-21T00:43:58;2.10;67.70
67557;DHT22;54387;53.526;49.300;2023-11-21T00:46:25;2.10;67.70
67557;DHT22;54387;53.526;49.300;2023-11-21T00:48:54;2.10;67.70
67557;DHT22;54387;53.526;49.300;2023-11-21T00:51:21;2.20;67.60
67557;DHT22;54387;53.526;49.300;2023-11-21T00:53:48;2.10;67.60
67557;DHT22;54387;53.526;49.300;2023-11-21T00:56:15;2.10;67.60
67557;DHT22;54387;53.526;49.300;2023-11-21T00:58:41;2.00;67.70
67557;DHT22;54387;53.526;49.300;2023-11-21T01:01:16;2.00;67.70
67557;DHT22;54387;53.526;49.300;2023-11-21T01:03:49;2.00;67.80
67557;DHT22;54387;53.526;49.300;2023-11-21T01:06:15;2.10;67.90
67557;DHT22;54387;53.526;49.300;2023-11-21T01:08:45;2.10;67.80
67557;DHT22;54387;53.526;49.300;2023-11-21T01:11:12;2.20;67.70
67557;DHT22;54387;53.526;49.300;2023-11-21T01:13:40;2.10;67.70
67557;DHT22;54387;53.526;49.300;2023-11-21T01:16:07;2.20;67.70
67557;DHT22;54387;53.526;49.300;2023-11-21T01:18:35;2.20;67.80
67557;DHT22;54387;53.526;49.300;2023-11-21T01:21:01;2.20;67.70
67557;DHT22;54387;53.526;49.300;2023-11-21T01:23:28;2.20;67.70
67557;DHT22;54387;53.526;49.300;2023-11-21T01:25:56;2.20;67.80
67557;DHT22;54387;53.526;49.300;2023-11-21T01:28:23;2.20;67.80
67557;DHT22;54387;53.526;49.300;2023-11-21T01:30:49;2.30;67.80
67557;DHT22;54387;53.526;49.300;2023-11-21T01:33:16;2.30;67.70
67557;DHT22;54387;53.526;49.300;2023-11-21T01:35:42;2.20;67.70
67557;DHT22;54387;53.526;49.300;2023-11-21T01:38:09;2.20;67.60
67557;DHT22;54387;53.526;49.300;2023-11-21T01:40:35;2.20;67.70
67557;DHT22;54387;53.526;49.300;2023-11-21T01:43:02;2.20;67.70
67557;DHT22;54387;53.526;49.300;2023-11-21T01:45:29;2.20;67.80
67557;DHT22;54387;53.526;49.300;2023-11-21T01:48:00;2.30;67.70
67557;DHT22;54387;53.526;49.300;2023-11-21T01:50:27;2.30;67.60
67557;DHT22;54387;53.526;49.300;2023-11-21T01:52:54;2.20;67.60
67557;DHT22;54387;53.526;49.300;2023-11-21T01:55:21;2.20;67.70
67557;DHT22;54387;53.526;49.300;2023-11-21T01:57:48;2.30;67.70
67557;DHT22;54387;53.526;49.300;2023-11-21T02:00:14;2.30;67.60
67557;DHT22;54387;53.526;49.300;2023-11-21T02:02:46;2.30;67.50
67557;DHT22;54387;53.526;49.300;2023-11-21T02:05:16;2.30;67.60
67557;DHT22;54387;53.526;49.300;2023-11-21T02:07:44;2.30;67.50
67557;DHT22;54387;53.526;49.300;2023-11-21T02:10:14;2.40;67.60
67557;DHT22;54387;53.526;49.300;2023-11-21T02:12:41;2.40;67.50
67557;DHT22;54387;53.526;49.300;2023-11-21T02:15:13;2.40;67.40
67557;DHT22;54387;53.526;49.300;2023-11-21T02:17:46;2.40;67.50
67557;DHT22;54387;53.526;49.300;2023-11-21T02:20:17;2.50;67.40
67557;DHT22;54387;53.526;49.300;2023-11-21T02:22:51;2.50;67.30
67557;DHT22;54387;53.526;49.300;2023-11-21T02:25:29;2.50;67.30
67557;DHT22;54387;53.526;49.300;2023-11-21T02:27:57;2.60;67.30
67557;DHT22;54387;53.526;49.300;2023-11-21T02:30:23;2.60;67.30
67557;DHT22;54387;53.526;49.300;2023-11-21T02:32:51;2.70;67.30
67557;DHT22;54387;53.526;49.300;2023-11-21T02:35:23;2.70;67.20
67557;DHT22;54387;53.526;49.300;2023-11-21T02:37:52;2.70;67.20
67557;DHT22;54387;53.526;49.300;2023-11-21T02:40:19;2.70;67.10
67557;DHT22;54387;53.526;49.300;2023-11-21T02:42:51;2.80;67.10
67557;DHT22;54387;53.526;49.300;2023-11-21T02:45:21;2.80;67.00
67557;DHT22;54387;53.526;49.300;2023-11-21T02:47:48;2.80;67.00
67557;DHT22;54387;53.526;49.300;2023-11-21T02:50:19;2.80;67.00
67557;DHT22;54387;53.526;49.300;2023-11-21T02:52:46;2.80;66.90
67557;DHT22;54387;53.526;49.300;2023-11-21T02:55:13;2.80;66.80
67557;DHT22;54387;53.526;49.300;2023-11-21T02:57:40;2.80;66.80
67557;DHT22;54387;53.526;49.300;2023-11-21T03:00:07;2.70;66.90
67557;DHT22;54387;53.526;49.300;2023-11-21T03:02:35;2.80;67.00
67557;DHT22;54387;53.526;49.300;2023-11-21T03:05:07;2.70;67.00
67557;DHT22;54387;53.526;49.300;2023-11-21T03:07:38;2.70;67.00
67557;DHT22;54387;53.526;49.300;2023-11-21T03:10:06;2.60;67.00
67557;DHT22;54387;53.526;49.300;2023-11-21T03:12:35;2.60;67.10
67557;DHT22;54387;53.526;49.300;2023-11-21T03:15:02;2.60;67.20
67557;DHT22;54387;53.526;49.300;2023-11-21T03:17:29;2.60;67.30
67557;DHT22;54387;53.526;49.300;2023-11-21T03:19:56;2.60;67.30
67557;DHT22;54387;53.526;49.300;2023-11-21T03:22:23;2.70;67.30
67557;DHT22;54387;53.526;49.300;2023-11-21T03:24:50;2.70;67.30
67557;DHT22;54387;53.526;49.300;2023-11-21T03:27:17;2.70;67.40
67557;DHT22;54387;53.526;49.300;2023-11-21T03:29:43;2.70;67.40
67557;DHT22;54387;53.526;49.300;2023-11-21T03:32:11;2.80;67.40
67557;DHT22;54387;53.526;49.300;2023-11-21T03:34:56;2.80;67.40
67557;DHT22;54387;53.526;49.300;2023-11-21T03:37:23;2.80;67.40
67557;DHT22;54387;53.526;49.300;2023-11-21T03:39:50;2.80;67.30
67557;DHT22;54387;53.526;49.300;2023-11-21T03:42:17;2.80;67.30
67557;DHT22;54387;53.526;49.300;2023-11-21T03:44:43;2.80;67.30
67557;DHT22;54387;53.526;49.300;2023-11-21T03:47:10;2.80;67.30
67557;DHT22;54387;53.526;49.300;2023-11-21T03:49:37;2.70;67.40
67557;DHT22;54387;53.526;49.300;2023-11-21T03:52:04;2.70;67.50
67557;DHT22;54387;53.526;49.300;2023-11-21T03:54:31;2.70;67.40
67557;DHT22;54387;53.526;49.300;2023-11-21T03:56:57;2.70;67.40
67557;DHT22;54387;53.526;49.300;2023-11-21T03:59:23;2.80;67.60
67557;DHT22;54387;53.526;49.300;2023-11-21T04:01:50;2.80;67.60
67557;DHT22;54387;53.526;49.300;2023-11-21T04:04:17;2.80;67.60
67557;DHT22;54387;53.526;49.300;2023-11-21T04:06:43;2.80;67.60
67557;DHT22;54387;53.526;49.300;2023-11-21T04:09:10;2.90;67.60
67557;DHT22;54387;53.526;49.300;2023-11-21T04:11:36;3.00;67.60
67557;DHT22;54387;53.526;49.300;2023-11-21T04:14:02;3.00;67.40
67557;DHT22;54387;53.526;49.300;2023-11-21T04:16:29;3.10;67.40
67557;DHT22;54387;53.526;49.300;2023-11-21T04:18:55;3.00;67.30
67557;DHT22;54387;53.526;49.300;2023-11-21T04:21:21;3.00;67.40
67557;DHT22;54387;53.526;49.300;2023-11-21T04:23:48;3.10;67.40
67557;DHT22;54387;53.526;49.300;2023-11-21T04:26:14;3.10;67.40
67557;DHT22;54387;53.526;49.300;2023-11-21T04:28:40;3.10;67.30
67557;DHT22;54387;53.526;49.300;2023-11-21T04:31:07;3.10;67.30
67557;DHT22;54387;53.526;49.300;2023-11-21T04:33:33;3.00;67.40
67557;DHT22;54387;53.526;49.300;2023-11-21T04:36:00;3.00;67.90
67557;DHT22;54387;53.526;49.300;2023-11-21T04:38:26;3.00;67.50
67557;DHT22;54387;53.526;49.300;2023-11-21T04:40:52;3.00;67.40
67557;DHT22;54387;53.526;49.300;2023-11-21T04:43:19;2.90;67.50
67557;DHT22;54387;53.526;49.300;2023-11-21T04:45:45;3.00;67.70
67557;DHT22;54387;53.526;49.300;2023-11-21T04:48:12;3.00;67.50
67557;DHT22;54387;53.526;49.300;2023-11-21T04:50:40;3.00;67.50
67557;DHT22;54387;53.526;49.300;2023-11-21T04:53:07;3.00;67.60
67557;DHT22;54387;53.526;49.300;2023-11-21T04:55:33;3.00;67.60
67557;DHT22;54387;53.526;49.300;2023-11-21T04:58:00;3.00;67.80
67557;DHT22;54387;53.526;49.300;2023-11-21T05:00:27;3.00;67.70
67557;DHT22;54387;53.526;49.300;2023-11-21T05:02:53;3.00;68.00
67557;DHT22;54387;53.526;49.300;2023-11-21T05:05:20;3.00;68.00
67557;DHT22;54387;53.526;49.300;2023-11-21T05:07:46;3.00;68.00
67557;DHT22;54387;53.526;49.300;2023-11-21T05:10:12;3.10;68.00
67557;DHT22;54387;53.526;49.300;2023-11-21T05:12:43;3.20;68.10
67557;DHT22;54387;53.526;49.300;2023-11-21T05:15:14;3.20;68.00
67557;DHT22;54387;53.526;49.300;2023-11-21T05:17:41;3.30;67.90
67557;DHT22;54387;53.526;49.300;2023-11-21T05:20:09;3.20;67.80
67557;DHT22;54387;53.526;49.300;2023-11-21T05:22:36;3.20;68.50
67557;DHT22;54387;53.526;49.300;2023-11-21T05:25:03;3.20;68.10
67557;DHT22;54387;53.526;49.300;2023-11-21T05:27:30;3.20;68.10
67557;DHT22;54387;53.526;49.300;2023-11-21T05:29:57;3.20;68.20
67557;DHT22;54387;53.526;49.300;2023-11-21T05:32:26;3.10;68.10
67557;DHT22;54387;53.526;49.300;2023-11-21T05:34:52;3.10;68.20
67557;DHT22;54387;53.526;49.300;2023-11-21T05:37:19;3.10;68.30
67557;DHT22;54387;53.526;49.300;2023-11-21T05:39:45;3.20;68.30
67557;DHT22;54387;53.526;49.300;2023-11-21T05:42:12;3.20;68.40
67557;DHT22;54387;53.526;49.300;2023-11-21T05:44:41;3.30;68.90
67557;DHT22;54387;53.526;49.300;2023-11-21T05:47:09;3.30;68.30
67557;DHT22;54387;53.526;49.300;2023-11-21T05:49:36;3.30;68.20
67557;DHT22;54387;53.526;49.300;2023-11-21T05:52:03;3.30;68.40
67557;DHT22;54387;53.526;49.300;2023-11-21T05:54:29;3.30;68.50
67557;DHT22;54387;53.526;49.300;2023-11-21T05:56:55;3.30;68.60
67557;DHT22;54387;53.526;49.300;2023-11-21T05:59:22;3.40;68.60
67557;DHT22;54387;53.526;49.300;2023-11-21T06:01:48;3.40;68.60
67557;DHT22;54387;53.526;49.300;2023-11-21T06:04:14;3.40;68.40
67557;DHT22;54387;53.526;49.300;2023-11-21T06:06:40;3.50;68.50
67557;DHT22;54387;53.526;49.300;2023-11-21T06:09:07;3.50;68.30
67557;DHT22;54387;53.526;49.300;2023-11-21T06:11:35;3.40;68.40
67557;DHT22;54387;53.526;49.300;2023-11-21T06:14:01;3.30;68.40
67557;DHT22;54387;53.526;49.300;2023-11-21T06:16:28;3.30;68.50
67557;DHT22;54387;53.526;49.300;2023-11-21T06:18:55;3.30;68.50
67557;DHT22;54387;53.526;49.300;2023-11-21T06:21:21;3.30;68.60
67557;DHT22;54387;53.526;49.300;2023-11-21T06:23:47;3.30;68.70
67557;DHT22;54387;53.526;49.300;2023-11-21T06:26:14;3.30;68.80
67557;DHT22;54387;53.526;49.300;2023-11-21T06:28:40;3.40;68.80
67557;DHT22;54387;53.526;49.300;2023-11-21T06:31:07;3.40;68.70
67557;DHT22;54387;53.526;49.300;2023-11-21T06:33:33;3.40;68.60
67557;DHT22;54387;53.526;49.300;2023-11-21T06:36:00;3.40;68.70
67557;DHT22;54387;53.526;49.300;2023-11-21T06:38:29;3.40;68.70
67557;DHT22;54387;53.526;49.300;2023-11-21T06:40:56;3.40;68.80
67557;DHT22;54387;53.526;49.300;2023-11-21T06:43:24;3.40;68.80
67557;DHT22;54387;53.526;49.300;2023-11-21T06:45:50;3.50;68.90
67557;DHT22;54387;53.526;49.300;2023-11-21T06:48:17;3.50;68.70
67557;DHT22;54387;53.526;49.300;2023-11-21T06:50:43;3.40;68.50
67557;DHT22;54387;53.526;49.300;2023-11-21T06:53:10;3.30;68.40
67557;DHT22;54387;53.526;49.300;2023-11-21T06:55:36;3.20;68.30
67557;DHT22;54387;53.526;49.300;2023-11-21T06:58:02;3.10;68.40
67557;DHT22;54387;53.526;49.300;2023-11-21T07:00:29;2.90;68.40
67557;DHT22;54387;53.526;49.300;2023-11-21T07:02:55;2.80;68.50
67557;DHT22;54387;53.526;49.300;2023-11-21T07:05:22;2.80;68.70
67557;DHT22;54387;53.526;49.300;2023-11-21T07:07:50;2.80;68.90
67557;DHT22;54387;53.526;49.300;2023-11-21T07:10:16;2.90;69.00
67557;DHT22;54387;53.526;49.300;2023-11-21T07:12:43;2.90;69.10
67557;DHT22;54387;53.526;49.300;2023-11-21T07:15:09;2.90;69.20
67557;DHT22;54387;53.526;49.300;2023-11-21T07:17:36;2.90;69.50
67557;DHT22;54387;53.526;49.300;2023-11-21T07:20:03;2.90;69.30
67557;DHT22;54387;53.526;49.300;2023-11-21T07:22:29;2.90;69.40
67557;DHT22;54387;53.526;49.300;2023-11-21T07:24:56;2.90;69.40
67557;DHT22;54387;53.526;49.300;2023-11-21T07:27:25;2.90;69.30
67557;DHT22;54387;53.526;49.300;2023-11-21T07:29:51;2.80;69.40
67557;DHT22;54387;53.526;49.300;2023-11-21T07:32:20;2.80;69.70
67557;DHT22;54387;53.526;49.300;2023-11-21T07:34:47;2.80;69.80
67557;DHT22;54387;53.526;49.300;2023-11-21T07:37:13;2.90;69.90
67557;DHT22;54387;53.526;49.300;2023-11-21T07:39:39;3.00;69.80
67557;DHT22;54387;53.526;49.300;2023-11-21T07:42:07;3.10;69.90
67557;DHT22;54387;53.526;49.300;2023-11-21T07:44:35;3.10;69.90
67557;DHT22;54387;53.526;49.300;2023-11-21T07:47:01;3.10;69.80
67557;DHT22;54387;53.526;49.300;2023-11-21T07:49:28;3.20;69.80
67557;DHT22;54387;53.526;49.300;2023-11-21T07:51:54;3.30;69.90
67557;DHT22;54387;53.526;49.300;2023-11-21T07:54:21;3.40;69.80
67557;DHT22;54387;53.526;49.300;2023-11-21T07:56:47;3.40;69.70
67557;DHT22;54387;53.526;49.300;2023-11-21T07:59:13;3.50;70.00
67557;DHT22;54387;53.526;49.300;2023-11-21T08:01:40;3.40;69.20
67557;DHT22;54387;53.526;49.300;2023-11-21T08:04:06;3.30;69.40
67557;DHT22;54387;53.526;49.300;2023-11-21T08:06:34;3.30;69.50
67557;DHT22;54387;53.526;49.300;2023-11-21T08:09:00;3.30;69.60
67557;DHT22;54387;53.526;49.300;2023-11-21T08:11:27;3.30;69.50
67557;DHT22;54387;53.526;49.300;2023-11-21T08:13:57;3.40;69.60
67557;DHT22;54387;53.526;49.300;2023-11-21T08:16:25;3.40;69.60
67557;DHT22;54387;53.526;49.300;2023-11-21T08:18:51;3.50;69.30
67557;DHT22;54387;53.526;49.300;2023-11-21T08:21:17;3.50;69.50
67557;DHT22;54387;53.526;49.300;2023-11-21T08:23:44;3.50;69.50
67557;DHT22;54387;53.526;49.300;2023-11-21T08:26:11;3.50;69.40
67557;DHT22;54387;53.526;49.300;2023-11-21T08:28:37;3.50;69.40
67557;DHT22;54387;53.526;49.300;2023-11-21T08:31:04;3.50;69.40
67557;DHT22;54387;53.526;49.300;2023-11-21T08:33:30;3.60;69.40
67557;DHT22;54387;53.526;49.300;2023-11-21T08:35:56;3.60;69.40
67557;DHT22;54387;53.526;49.300;2023-11-21T08:38:23;3.70;69.30
67557;DHT22;54387;53.526;49.300;2023-11-21T08:40:49;3.70;69.10
67557;DHT22;54387;53.526;49.300;2023-11-21T08:43:16;3.60;69.00
67557;DHT22;54387;53.526;49.300;2023-11-21T08:45:45;3.60;68.90
67557;DHT22;54387;53.526;49.300;2023-11-21T08:48:12;3.60;68.90
67557;DHT22;54387;53.526;49.300;2023-11-21T08:50:40;3.50;69.00
67557;DHT22;54387;53.526;49.300;2023-11-21T08:53:06;3.50;68.80
67557;DHT22;54387;53.526;49.300;2023-11-21T08:55:32;3.50;69.00
67557;DHT22;54387;53.526;49.300;2023-11-21T08:58:03;3.50;69.10
67557;DHT22;54387;53.526;49.300;2023-11-21T09:00:35;3.60;69.10
67557;DHT22;54387;53.526;49.300;2023-11-21T09:03:02;3.70;68.90
67557;DHT22;54387;53.526;49.300;2023-11-21T09:05:30;3.80;68.80
67557;DHT22;54387;53.526;49.300;2023-11-21T09:07:56;3.70;68.60
67557;DHT22;54387;53.526;49.300;2023-11-21T09:10:23;3.70;68.50
67557;DHT22;54387;53.526;49.300;2023-11-21T09:12:51;3.70;68.70
67557;DHT22;54387;53.526;49.300;2023-11-21T09:15:18;3.70;68.70
67557;DHT22;54387;53.526;49.300;2023-11-21T09:17:44;3.70;68.50
67557;DHT22;54387;53.526;49.300;2023-11-21T09:20:10;3.70;68.60
67557;DHT22;54387;53.526;49.300;2023-11-21T09:22:37;3.60;68.50
67557;DHT22;54387;53.526;49.300;2023-11-21T09:25:03;3.60;68.50
67557;DHT22;54387;53.526;49.300;2023-11-21T09:27:31;3.60;68.50
67557;DHT22;54387;53.526;49.300;2023-11-21T09:29:57;3.60;68.50
67557;DHT22;54387;53.526;49.300;2023-11-21T09:32:24;3.60;68.50
67557;DHT22;54387;53.526;49.300;2023-11-21T09:34:50;3.60;68.40
67557;DHT22;54387;53.526;49.300;2023-11-21T09:37:17;3.60;68.30
67557;DHT22;54387;53.526;49.300;2023-11-21T09:39:43;3.50;68.30
67557;DHT22;54387;53.526;49.300;2023-11-21T09:42:17;3.60;68.40
67557;DHT22;54387;53.526;49.300;2023-11-21T09:45:05;3.70;68.40
67557;DHT22;54387;53.526;49.300;2023-11-21T09:47:38;3.70;68.50
67557;DHT22;54387;53.526;49.300;2023-11-21T09:50:06;3.80;68.40
67557;DHT22;54387;53.526;49.300;2023-11-21T09:53:18;3.80;68.30
67557;DHT22;54387;53.526;49.300;2023-11-21T09:55:42;3.90;68.40
67557;DHT22;54387;53.526;49.300;2023-11-21T09:58:10;3.90;68.30
67557;DHT22;54387;53.526;49.300;2023-11-21T10:00:45;3.90;68.30
67557;DHT22;54387;53.526;49.300;2023-11-21T10:03:12;3.90;68.20
67557;DHT22;54387;53.526;49.300;2023-11-21T10:05:40;4.00;68.20
67557;DHT22;54387;53.526;49.300;2023-11-21T10:08:09;4.00;67.90
67557;DHT22;54387;53.526;49.300;2023-11-21T10:10:43;3.90;67.80
67557;DHT22;54387;53.526;49.300;2023-11-21T10:13:12;3.90;67.80
67557;DHT22;54387;53.526;49.300;2023-11-21T10:15:43;3.80;67.80
67557;DHT22;54387;53.526;49.300;2023-11-21T10:18:15;3.80;67.80
67557;DHT22;54387;53.526;49.300;2023-11-21T10:20:41;3.70;67.80
67557;DHT22;54387;53.526;49.300;2023-11-21T10:23:09;3.70;67.90
67557;DHT22;54387;53.526;49.300;2023-11-21T10:25:40;3.70;67.90
67557;DHT22;54387;53.526;49.300;2023-11-21T10:28:07;3.70;67.80
67557;DHT22;54387;53.526;49.300;2023-11-21T10:30:37;3.70;67.80
67557;DHT22;54387;53.526;49.300;2023-11-21T10:33:05;3.60;67.70
67557;DHT22;54387;53.526;49.300;2023-11-21T10:35:48;3.60;67.80
67557;DHT22;54387;53.526;49.300;2023-11-21T10:38:21;3.50;67.80
67557;DHT22;54387;53.526;49.300;2023-11-21T10:40:50;3.50;67.90
67557;DHT22;54387;53.526;49.300;2023-11-21T10:43:17;3.50;68.10
67557;DHT22;54387;53.526;49.300;2023-11-21T10:45:44;3.50;68.20
67557;DHT22;54387;53.526;49.300;2023-11-21T10:48:13;3.60;68.20
67557;DHT22;54387;53.526;49.300;2023-11-21T10:50:45;3.60;67.80
67557;DHT22;54387;53.526;49.300;2023-11-21T10:53:11;3.50;67.70
67557;DHT22;54387;53.526;49.300;2023-11-21T10:55:38;3.40;67.70
67557;DHT22;54387;53.526;49.300;2023-11-21T10:58:05;3.30;67.70
67557;DHT22;54387;53.526;49.300;2023-11-21T11:00:33;3.20;68.00
67557;DHT22;54387;53.526;49.300;2023-11-21T11:03:00;3.20;68.00
67557;DHT22;54387;53.526;49.300;2023-11-21T11:05:28;3.20;68.20
67557;DHT22;54387;53.526;49.300;2023-11-21T11:08:05;3.30;68.10
67557;DHT22;54387;53.526;49.300;2023-11-21T11:10:34;3.20;68.20
67557;DHT22;54387;53.526;49.300;2023-11-21T11:13:01;3.30;68.30
67557;DHT22;54387;53.526;49.300;2023-11-21T11:15:28;3.30;68.20
67557;DHT22;54387;53.526;49.300;2023-11-21T11:17:55;3.30;68.20
67557;DHT22;54387;53.526;49.300;2023-11-21T11:20:32;3.30;68.40
67557;DHT22;54387;53.526;49.300;2023-11-21T11:23:41;3.30;68.40
67557;DHT22;54387;53.526;49.300;2023-11-21T11:29:21;3.40;68.30
67557;DHT22;54387;53.526;49.300;2023-11-21T11:34:34;3.40;68.20
67557;DHT22;54387;53.526;49.300;2023-11-21T11:37:05;3.40;68.10
67557;DHT22;54387;53.526;49.300;2023-11-21T11:39:41;3.40;68.20
67557;DHT22;54387;53.526;49.300;2023-11-21T11:42:13;3.30;68.20
67557;DHT22;54387;53.526;49.300;2023-11-21T11:44:48;3.30;68.30
67557;DHT22;54387;53.526;49.300;2023-11-21T11:47:28;3.20;68.40
67557;DHT22;54387;53.526;49.300;2023-11-21T11:52:50;3.20;68.30
67557;DHT22;54387;53.526;49.300;2023-11-21T11:55:19;3.20;68.40
67557;DHT22;54387;53.526;49.300;2023-11-21T11:57:48;3.10;68.40
67557;DHT22;54387;53.526;49.300;2023-11-21T12:00:21;3.10;68.50
67557;DHT22;54387;53.526;49.300;2023-11-21T12:03:02;3.10;68.50
67557;DHT22;54387;53.526;49.300;2023-11-21T12:05:32;3.10;68.60
67557;DHT22;54387;53.526;49.300;2023-11-21T12:08:03;3.00;68.60
67557;DHT22;54387;53.526;49.300;2023-11-21T12:10:32;3.00;68.60
67557;DHT22;54387;53.526;49.300;2023-11-21T12:15:27;2.80;68.80
67557;DHT22;54387;53.526;49.300;2023-11-21T12:17:57;2.60;69.00
67557;DHT22;54387;53.526;49.300;2023-11-21T12:20:27;2.50;69.30
67557;DHT22;54387;53.526;49.300;2023-11-21T12:22:55;2.50;69.50
67557;DHT22;54387;53.526;49.300;2023-11-21T12:25:24;2.30;69.70
67557;DHT22;54387;53.526;49.300;2023-11-21T12:27:52;2.30;69.90
67557;DHT22;54387;53.526;49.300;2023-11-21T12:30:20;2.30;70.20
67557;DHT22;54387;53.526;49.300;2023-11-21T12:32:49;2.20;70.30
67557;DHT22;54387;53.526;49.300;2023-11-21T12:35:21;2.30;70.40
67557;DHT22;54387;53.526;49.300;2023-11-21T12:37:48;2.30;70.50
67557;DHT22;54387;53.526;49.300;2023-11-21T12:40:16;2.20;70.40
67557;DHT22;54387;53.526;49.300;2023-11-21T12:42:45;2.20;70.50
67557;DHT22;54387;53.526;49.300;2023-11-21T12:45:28;2.20;70.60
67557;DHT22;54387;53.526;49.300;2023-11-21T12:48:00;2.00;70.80
67557;DHT22;54387;53.526;49.300;2023-11-21T12:50:31;2.00;71.10
67557;DHT22;54387;53.526;49.300;2023-11-21T12:53:01;2.00;71.30
67557;DHT22;54387;53.526;49.300;2023-11-21T12:55:33;2.00;71.40
67557;DHT22;54387;53.526;49.300;2023-11-21T12:58:05;2.00;71.40
67557;DHT22;54387;53.526;49.300;2023-11-21T13:00:37;2.00;71.40
67557;DHT22;54387;53.526;49.300;2023-11-21T13:03:06;2.00;71.50
67557;DHT22;54387;53.526;49.300;2023-11-21T13:05:35;2.00;71.40
67557;DHT22;54387;53.526;49.300;2023-11-21T13:08:08;2.00;71.40
67557;DHT22;54387;53.526;49.300;2023-11-21T13:10:36;2.00;71.50
67557;DHT22;54387;53.526;49.300;2023-11-21T13:13:05;1.90;71.70
67557;DHT22;54387;53.526;49.300;2023-11-21T13:15:38;2.00;71.90
67557;DHT22;54387;53.526;49.300;2023-11-21T13:18:05;2.00;71.80
67557;DHT22;54387;53.526;49.300;2023-11-21T13:20:31;2.00;71.70
67557;DHT22;54387;53.526;49.300;2023-11-21T13:22:59;2.00;71.70
67557;DHT22;54387;53.526;49.300;2023-11-21T13:25:29;2.00;71.70
67557;DHT22;54387;53.526;49.300;2023-11-21T13:27:58;2.00;71.80
67557;DHT22;54387;53.526;49.300;2023-11-21T13:30:29;2.00;71.70
67557;DHT22;54387;53.526;49.300;2023-11-21T13:33:04;2.00;71.80
67557;DHT22;54387;53.526;49.300;2023-11-21T13:35:34;2.10;71.90
67557;DHT22;54387;53.526;49.300;2023-11-21T13:38:11;2.10;71.90
67557;DHT22;54387;53.526;49.300;2023-11-21T13:40:40;2.10;71.80
67557;DHT22;54387;53.526;49.300;2023-11-21T13:43:13;2.10;71.80
67557;DHT22;54387;53.526;49.300;2023-11-21T13:45:43;2.10;71.60
67557;DHT22;54387;53.526;49.300;2023-11-21T13:48:11;2.10;71.70
67557;DHT22;54387;53.526;49.300;2023-11-21T13:50:40;2.20;71.60
67557;DHT22;54387;53.526;49.300;2023-11-21T13:53:14;2.10;71.70
67557;DHT22;54387;53.526;49.300;2023-11-21T13:55:51;2.20;71.80
67557;DHT22;54387;53.526;49.300;2023-11-21T13:58:21;2.20;71.80
67557;DHT22;54387;53.526;49.300;2023-11-21T14:01:13;2.20;71.70
67557;DHT22;54387;53.526;49.300;2023-11-21T14:04:01;2.30;72.10
67557;DHT22;54387;53.526;49.300;2023-11-21T14:06:54;2.20;71.40
67557;DHT22;54387;53.526;49.300;2023-11-21T14:09:22;2.10;71.60
67557;DHT22;54387;53.526;49.300;2023-11-21T14:11:50;2.10;71.70
67557;DHT22;54387;53.526;49.300;2023-11-21T14:14:19;2.10;71.70
67557;DHT22;54387;53.526;49.300;2023-11-21T14:16:46;2.10;71.70
67557;DHT22;54387;53.526;49.300;2023-11-21T14:19:13;2.10;71.70
67557;DHT22;54387;53.526;49.300;2023-11-21T14:21:47;2.10;71.70
67557;DHT22;54387;53.526;49.300;2023-11-21T14:24:14;2.10;71.70
67557;DHT22;54387;53.526;49.300;2023-11-21T14:26:44;2.00;71.70
67557;DHT22;54387;53.526;49.300;2023-11-21T14:29:15;2.00;71.70
67557;DHT22;54387;53.526;49.300;2023-11-21T14:31:46;2.00;71.90
67557;DHT22;54387;53.526;49.300;2023-11-21T14:34:12;2.00;72.10
67557;DHT22;54387;53.526;49.300;2023-11-21T14:36:40;2.00;72.10
67557;DHT22;54387;53.526;49.300;2023-11-21T14:39:07;2.10;71.90
67557;DHT22;54387;53.526;49.300;2023-11-21T14:41:37;2.10;71.80
67557;DHT22;54387;53.526;49.300;2023-11-21T14:44:05;2.10;71.80
67557;DHT22;54387;53.526;49.300;2023-11-21T14:46:38;2.10;71.90
67557;DHT22;54387;53.526;49.300;2023-11-21T14:49:06;2.10;71.90
67557;DHT22;54387;53.526;49.300;2023-11-21T14:51:52;2.10;71.80
67557;DHT22;54387;53.526;49.300;2023-11-21T14:54:39;2.10;71.80
67557;DHT22;54387;53.526;49.300;2023-11-21T14:57:13;2.20;71.80
67557;DHT22;54387;53.526;49.300;2023-11-21T14:59:45;2.20;71.70
67557;DHT22;54387;53.526;49.300;2023-11-21T15:02:19;2.10;71.60
67557;DHT22;54387;53.526;49.300;2023-11-21T15:05:08;2.10;71.60
67557;DHT22;54387;53.526;49.300;2023-11-21T15:07:41;2.20;71.60
67557;DHT22;54387;53.526;49.300;2023-11-21T15:10:07;2.20;71.70
67557;DHT22;54387;53.526;49.300;2023-11-21T15:12:41;2.20;71.50
67557;DHT22;54387;53.526;49.300;2023-11-21T15:15:09;2.20;71.30
67557;DHT22;54387;53.526;49.300;2023-11-21T15:17:36;2.20;71.40
67557;DHT22;54387;53.526;49.300;2023-11-21T15:20:03;2.20;71.50
67557;DHT22;54387;53.526;49.300;2023-11-21T15:22:32;2.20;71.20
67557;DHT22;54387;53.526;49.300;2023-11-21T15:24:59;2.20;71.20
67557;DHT22;54387;53.526;49.300;2023-11-21T15:27:27;2.20;71.30
67557;DHT22;54387;53.526;49.300;2023-11-21T15:29:53;2.20;71.30
67557;DHT22;54387;53.526;49.300;2023-11-21T15:32:20;2.30;71.40
67557;DHT22;54387;53.526;49.300;2023-11-21T15:34:47;2.30;71.20
67557;DHT22;54387;53.526;49.300;2023-11-21T15:37:14;2.20;71.30
67557;DHT22;54387;53.526;49.300;2023-11-21T15:39:41;2.30;71.30
67557;DHT22;54387;53.526;49.300;2023-11-21T15:42:08;2.20;71.00
67557;DHT22;54387;53.526;49.300;2023-11-21T15:44:35;2.10;71.10
67557;DHT22;54387;53.526;49.300;2023-11-21T15:47:03;2.10;71.30
67557;DHT22;54387;53.526;49.300;2023-11-21T15:49:33;2.10;71.30
67557;DHT22;54387;53.526;49.300;2023-11-21T15:52:04;2.10;71.40